createdAt,value
2022-08-01T00:01:21.911Z,22.25
2022-08-01T00:03:52.648Z,22.04
2022-08-01T00:06:22.502Z,22.16
2022-08-01T00:08:54.284Z,22.21
2022-08-01T00:11:24.122Z,22.09
2022-08-01T00:13:53.844Z,21.83
2022-08-01T00:16:26.329Z,22.00
2022-08-01T00:18:56.554Z,22.09
2022-08-01T00:21:26.209Z,22.00
2022-08-01T00:23:55.828Z,22.13
2022-08-01T00:26:25.545Z,22.10
2022-08-01T00:28:55.299Z,22.03
2022-08-01T00:31:27.526Z,22.04
2022-08-01T00:33:57.566Z,21.92
2022-08-01T00:36:27.205Z,22.10
2022-08-01T00:38:56.920Z,22.03
2022-08-01T00:41:26.708Z,22.04
2022-08-01T00:43:56.359Z,21.98
2022-08-01T00:46:28.624Z,22.03
2022-08-01T00:48:58.530Z,22.00
2022-08-01T00:51:29.126Z,21.98
2022-08-01T00:53:59.140Z,21.92
2022-08-01T00:56:32.061Z,21.92
2022-08-01T00:59:02.178Z,21.83
2022-08-01T01:01:39.981Z,22.07
2022-08-01T01:04:09.804Z,21.99
2022-08-01T01:06:51.447Z,21.95
2022-08-01T01:09:38.811Z,21.96
2022-08-01T01:12:19.427Z,21.62
2022-08-01T01:14:56.822Z,21.99
2022-08-01T01:17:49.749Z,21.99
2022-08-01T01:20:23.226Z,21.84
2022-08-01T01:23:14.140Z,21.95
2022-08-01T01:25:54.986Z,21.86
2022-08-01T01:28:35.007Z,21.74
2022-08-01T01:31:10.990Z,21.69
2022-08-01T01:33:47.295Z,21.69
2022-08-01T01:36:20.513Z,21.58
2022-08-01T01:38:51.706Z,21.18
2022-08-01T01:41:22.536Z,21.54
2022-08-01T01:43:54.300Z,21.56
2022-08-01T01:46:29.898Z,21.55
2022-08-01T01:49:00.423Z,21.32
2022-08-01T01:51:32.177Z,21.49
2022-08-01T01:54:04.835Z,21.60
2022-08-01T01:56:35.019Z,21.43
2022-08-01T01:59:07.705Z,21.63
2022-08-01T02:02:05.236Z,21.57
2022-08-01T02:04:31.900Z,21.63
2022-08-01T02:07:02.685Z,21.62
2022-08-01T02:09:34.297Z,21.48
2022-08-01T02:12:08.178Z,21.69
2022-08-01T02:14:41.924Z,21.64
2022-08-01T02:17:16.092Z,21.29
2022-08-01T02:19:46.227Z,21.57
2022-08-01T02:22:21.930Z,21.38
2022-08-01T02:24:55.923Z,21.49
2022-08-01T02:27:35.073Z,21.50
2022-08-01T02:30:08.434Z,21.45
2022-08-01T02:32:46.627Z,21.47
2022-08-01T02:35:21.773Z,21.49
2022-08-01T02:37:52.757Z,21.33
2022-08-01T02:40:23.428Z,21.37
2022-08-01T02:42:56.485Z,21.37
2022-08-01T02:45:29.676Z,21.49
2022-08-01T02:48:08.691Z,21.46
2022-08-01T02:50:39.901Z,21.27
2022-08-01T02:53:11.329Z,21.05
2022-08-01T02:55:43.504Z,21.32
2022-08-01T02:58:16.048Z,21.15
2022-08-01T03:00:48.738Z,21.51
2022-08-01T03:03:21.753Z,21.54
2022-08-01T03:05:52.416Z,21.48
2022-08-01T03:08:23.984Z,21.54
2022-08-01T03:10:55.994Z,21.51
2022-08-01T03:13:26.739Z,21.43
2022-08-01T03:15:59.570Z,21.27
2022-08-01T03:18:32.699Z,21.49
2022-08-01T03:21:03.598Z,21.35
2022-08-01T03:23:38.085Z,21.40
2022-08-01T03:26:09.649Z,21.32
2022-08-01T03:28:42.357Z,21.29
2022-08-01T03:31:13.182Z,21.15
2022-08-01T03:33:45.472Z,21.11
2022-08-01T03:36:16.686Z,20.96
2022-08-01T03:38:48.768Z,21.25
2022-08-01T03:41:24.755Z,21.31
2022-08-01T03:43:59.527Z,21.10
2022-08-01T03:46:35.384Z,21.19
2022-08-01T03:49:15.077Z,21.24
2022-08-01T03:51:46.126Z,20.93
2022-08-01T03:54:17.196Z,21.23
2022-08-01T03:56:49.827Z,21.07
2022-08-01T03:59:20.535Z,21.08
2022-08-01T04:01:51.454Z,21.23
2022-08-01T04:04:24.016Z,21.06
2022-08-01T04:06:55.091Z,20.95
2022-08-01T04:09:25.388Z,21.10
2022-08-01T04:11:55.085Z,21.06
2022-08-01T04:14:24.942Z,21.15
2022-08-01T04:16:54.750Z,21.09
2022-08-01T04:19:27.200Z,20.85
2022-08-01T04:21:57.721Z,21.19
2022-08-01T04:24:31.051Z,21.16
2022-08-01T04:27:03.971Z,21.21
2022-08-01T04:29:35.542Z,21.21
2022-08-01T04:32:06.046Z,21.26
2022-08-01T04:34:41.028Z,21.20
2022-08-01T04:37:13.464Z,21.17
2022-08-01T04:39:50.392Z,21.17
2022-08-01T04:42:26.769Z,21.28
2022-08-01T04:45:00.804Z,21.17
2022-08-01T04:47:30.859Z,21.21
2022-08-01T04:50:03.457Z,21.14
2022-08-01T04:52:37.018Z,20.98
2022-08-01T04:55:08.404Z,21.12
2022-08-01T04:57:41.161Z,21.11
2022-08-01T05:00:12.265Z,20.89
2022-08-01T05:02:42.136Z,21.02
2022-08-01T05:05:15.910Z,21.12
2022-08-01T05:07:45.842Z,21.07
2022-08-01T05:10:15.725Z,21.17
2022-08-01T05:12:45.373Z,20.92
2022-08-01T05:15:15.782Z,21.18
2022-08-01T05:17:45.908Z,20.88
2022-08-01T05:20:18.160Z,21.33
2022-08-01T05:22:48.125Z,21.29
2022-08-01T05:25:20.394Z,21.26
2022-08-01T05:27:58.166Z,21.27
2022-08-01T05:30:27.855Z,21.34
2022-08-01T05:32:57.620Z,21.52
2022-08-01T05:35:48.165Z,21.60
2022-08-01T05:38:18.801Z,21.57
2022-08-01T05:40:49.624Z,21.78
2022-08-01T05:43:20.500Z,21.75
2022-08-01T05:45:52.043Z,21.86
2022-08-01T05:48:22.743Z,21.81
2022-08-01T05:50:58.737Z,21.86
2022-08-01T05:53:28.933Z,21.81
2022-08-01T05:55:59.661Z,21.62
2022-08-01T05:58:30.377Z,21.67
2022-08-01T06:01:00.156Z,21.80
2022-08-01T06:03:32.258Z,21.66
2022-08-01T06:06:05.985Z,21.71
2022-08-01T06:08:35.741Z,21.59
2022-08-01T06:11:07.163Z,21.73
2022-08-01T06:13:44.904Z,21.60
2022-08-01T06:16:18.148Z,21.48
2022-08-01T06:18:52.792Z,21.27
2022-08-01T06:21:29.312Z,21.02
2022-08-01T06:23:59.046Z,20.85
2022-08-01T06:26:29.771Z,20.65
2022-08-01T06:29:00.636Z,20.53
2022-08-01T06:31:33.955Z,20.38
2022-08-01T06:34:05.938Z,20.35
2022-08-01T06:36:39.417Z,20.50
2022-08-01T06:39:09.185Z,20.67
2022-08-01T06:41:38.918Z,20.57
2022-08-01T06:44:08.716Z,20.96
2022-08-01T06:46:39.398Z,21.00
2022-08-01T06:49:09.286Z,20.55
2022-08-01T06:51:41.740Z,20.86
2022-08-01T06:54:12.459Z,20.79
2022-08-01T06:56:42.145Z,21.02
2022-08-01T06:59:11.989Z,20.94
2022-08-01T07:01:42.163Z,21.10
2022-08-01T07:04:11.869Z,21.08
2022-08-01T07:06:44.198Z,21.27
2022-08-01T07:09:15.915Z,21.29
2022-08-01T07:11:45.672Z,21.36
2022-08-01T07:14:15.342Z,21.20
2022-08-01T07:16:45.120Z,21.60
2022-08-01T07:19:15.288Z,21.37
2022-08-01T07:21:50.072Z,21.28
2022-08-01T07:24:21.653Z,21.58
2022-08-01T07:26:55.108Z,21.67
2022-08-01T07:29:27.054Z,21.68
2022-08-01T07:31:59.486Z,21.31
2022-08-01T07:34:30.303Z,21.70
2022-08-01T07:37:02.661Z,21.60
2022-08-01T07:39:32.370Z,21.72
2022-08-01T07:42:06.263Z,22.03
2022-08-01T07:44:38.052Z,22.04
2022-08-01T07:47:08.724Z,22.28
2022-08-01T07:49:41.288Z,22.42
2022-08-01T07:52:15.158Z,22.41
2022-08-01T07:54:49.204Z,22.52
2022-08-01T07:57:22.628Z,22.41
2022-08-01T07:59:53.480Z,22.29
2022-08-01T08:02:24.265Z,22.06
2022-08-01T08:04:54.029Z,21.78
2022-08-01T08:07:27.389Z,21.76
2022-08-01T08:09:58.156Z,21.53
2022-08-01T08:12:29.955Z,21.50
2022-08-01T08:15:01.480Z,21.62
2022-08-01T08:17:35.693Z,21.40
2022-08-01T08:20:09.769Z,21.71
2022-08-01T08:22:43.413Z,21.78
2022-08-01T08:25:14.252Z,21.56
2022-08-01T08:27:46.047Z,21.47
2022-08-01T08:30:19.599Z,21.25
2022-08-01T08:32:52.482Z,21.26
2022-08-01T08:35:40.561Z,21.30
2022-08-01T08:38:17.503Z,21.43
2022-08-01T08:40:49.816Z,21.59
2022-08-01T08:43:20.497Z,21.85
2022-08-01T08:45:59.547Z,22.00
2022-08-01T08:48:32.162Z,22.17
2022-08-01T08:51:04.266Z,22.03
2022-08-01T08:53:39.612Z,22.09
2022-08-01T08:56:12.020Z,21.91
2022-08-01T08:58:42.153Z,21.79
2022-08-01T09:01:13.575Z,21.77
2022-08-01T09:03:44.135Z,21.65
2022-08-01T09:06:15.366Z,21.45
2022-08-01T09:08:48.700Z,21.37
2022-08-01T09:11:22.953Z,21.44
2022-08-01T09:14:11.603Z,21.37
2022-08-01T09:16:48.852Z,21.43
2022-08-01T09:19:39.487Z,21.58
2022-08-01T09:22:13.147Z,21.80
2022-08-01T09:25:01.615Z,22.13
2022-08-01T09:27:36.248Z,22.16
2022-08-01T09:30:13.173Z,22.20
2022-08-01T09:32:58.205Z,22.19
2022-08-01T09:35:36.420Z,22.19
2022-08-01T09:38:19.097Z,21.98
2022-08-01T09:40:58.137Z,22.33
2022-08-01T09:43:31.671Z,22.43
2022-08-01T09:46:03.703Z,22.26
2022-08-01T09:48:35.490Z,22.31
2022-08-01T09:51:09.765Z,22.50
2022-08-01T09:53:51.199Z,22.55
2022-08-01T09:56:26.870Z,22.45
2022-08-01T09:59:02.389Z,22.41
2022-08-01T10:01:47.169Z,22.57
2022-08-01T10:04:20.837Z,22.85
2022-08-01T10:06:55.309Z,22.05
2022-08-01T10:09:39.643Z,22.83
2022-08-01T10:12:17.477Z,22.80
2022-08-01T10:14:50.787Z,22.61
2022-08-01T10:17:23.935Z,22.85
2022-08-01T10:20:30.648Z,22.97
2022-08-01T10:23:06.170Z,23.05
2022-08-01T10:25:47.383Z,22.86
2022-08-01T10:28:24.057Z,22.41
2022-08-01T10:30:54.357Z,22.37
2022-08-01T10:33:51.171Z,22.36
2022-08-01T10:36:18.076Z,22.13
2022-08-01T10:38:49.690Z,22.29
2022-08-01T10:41:22.358Z,22.38
2022-08-01T10:43:55.811Z,22.31
2022-08-01T10:46:26.307Z,22.53
2022-08-01T10:49:04.687Z,22.58
2022-08-01T10:51:52.656Z,22.49
2022-08-01T10:54:28.632Z,22.15
2022-08-01T10:57:03.827Z,22.03
2022-08-01T10:59:50.802Z,21.82
2022-08-01T11:02:32.565Z,21.90
2022-08-01T11:05:06.739Z,22.05
2022-08-01T11:07:47.878Z,22.11
2022-08-01T11:10:26.786Z,22.14
2022-08-01T11:13:00.037Z,22.08
2022-08-01T11:15:33.557Z,22.04
2022-08-01T11:18:06.591Z,22.28
2022-08-01T11:20:41.920Z,22.35
2022-08-01T11:23:23.500Z,22.63
2022-08-01T11:26:14.142Z,22.76
2022-08-01T11:29:17.984Z,23.05
2022-08-01T11:31:43.165Z,23.00
2022-08-01T11:34:15.590Z,23.30
2022-08-01T11:37:03.247Z,23.21
2022-08-01T11:39:38.261Z,23.04
2022-08-01T11:42:23.670Z,22.92
2022-08-01T11:44:58.362Z,23.08
2022-08-01T11:47:50.933Z,23.30
2022-08-01T11:50:40.000Z,23.30
2022-08-01T11:53:12.658Z,23.52
2022-08-01T11:55:51.527Z,23.33
2022-08-01T11:58:29.416Z,23.45
2022-08-01T12:01:03.039Z,23.74
2022-08-01T12:03:36.720Z,23.58
2022-08-01T12:06:07.822Z,23.53
2022-08-01T12:08:39.746Z,23.90
2022-08-01T12:11:09.701Z,23.89
2022-08-01T12:13:45.897Z,23.81
2022-08-01T12:16:16.185Z,23.60
2022-08-01T12:18:49.747Z,23.86
2022-08-01T12:21:20.377Z,24.02
2022-08-01T12:24:04.051Z,24.10
2022-08-01T12:26:43.917Z,24.20
2022-08-01T12:29:13.634Z,24.31
2022-08-01T12:31:44.526Z,24.30
2022-08-01T12:34:35.162Z,24.36
2022-08-01T12:37:07.213Z,24.26
2022-08-01T12:39:40.066Z,24.36
2022-08-01T12:42:11.924Z,24.09
2022-08-01T12:44:42.738Z,24.02
2022-08-01T12:47:12.813Z,24.16
2022-08-01T12:49:48.052Z,24.38
2022-08-01T12:52:22.554Z,24.33
2022-08-01T12:55:09.681Z,24.28
2022-08-01T12:57:45.653Z,24.25
2022-08-01T13:00:20.896Z,24.40
2022-08-01T13:02:52.252Z,24.56
2022-08-01T13:05:28.654Z,24.22
2022-08-01T13:07:59.370Z,24.60
2022-08-01T13:10:36.872Z,24.68
2022-08-01T13:13:07.927Z,24.68
2022-08-01T13:15:41.766Z,24.86
2022-08-01T13:18:29.832Z,24.86
2022-08-01T13:21:17.637Z,24.60
2022-08-01T13:24:06.274Z,25.35
2022-08-01T13:26:44.804Z,25.55
2022-08-01T13:29:17.886Z,25.53
2022-08-01T13:31:49.706Z,25.55
2022-08-01T13:34:21.038Z,25.52
2022-08-01T13:36:55.316Z,25.34
2022-08-01T13:39:38.137Z,25.31
2022-08-01T13:42:10.426Z,25.50
2022-08-01T13:44:42.314Z,25.63
2022-08-01T13:47:15.117Z,25.28
2022-08-01T13:49:46.962Z,25.30
2022-08-01T13:52:20.418Z,25.64
2022-08-01T13:54:55.121Z,25.77
2022-08-01T13:57:25.913Z,25.61
2022-08-01T14:00:11.228Z,25.62
2022-08-01T14:02:44.619Z,25.61
2022-08-01T14:05:15.390Z,25.53
2022-08-01T14:07:48.965Z,25.18
2022-08-01T14:10:20.662Z,25.53
2022-08-01T14:12:51.952Z,25.55
2022-08-01T14:15:38.215Z,25.55
2022-08-01T14:18:11.149Z,25.60
2022-08-01T14:20:42.670Z,25.74
2022-08-01T14:23:16.140Z,25.89
2022-08-01T14:26:03.476Z,25.72
2022-08-01T14:28:39.565Z,25.55
2022-08-01T14:31:09.863Z,25.46
2022-08-01T14:33:42.280Z,25.33
2022-08-01T14:36:29.534Z,25.48
2022-08-01T14:39:04.928Z,25.15
2022-08-01T14:41:36.588Z,25.10
2022-08-01T14:44:06.854Z,25.29
2022-08-01T14:46:36.646Z,25.12
2022-08-01T14:49:12.445Z,25.21
2022-08-01T14:51:42.422Z,25.21
2022-08-01T14:54:14.839Z,25.21
2022-08-01T14:56:46.630Z,25.23
2022-08-01T14:59:21.855Z,25.10
2022-08-01T15:01:51.839Z,25.04
2022-08-01T15:04:21.632Z,24.89
2022-08-01T15:06:51.450Z,25.01
2022-08-01T15:09:24.238Z,25.13
2022-08-01T15:11:54.055Z,25.29
2022-08-01T15:14:36.317Z,25.45
2022-08-01T15:17:07.591Z,25.50
2022-08-01T15:19:41.919Z,25.53
2022-08-01T15:22:13.082Z,25.45
2022-08-01T15:24:46.965Z,25.15
2022-08-01T15:27:16.775Z,25.06
2022-08-01T15:29:46.593Z,24.91
2022-08-01T15:32:17.958Z,24.79
2022-08-01T15:34:48.118Z,24.91
2022-08-01T15:37:19.012Z,24.93
2022-08-01T15:39:51.449Z,24.78
2022-08-01T15:42:27.027Z,24.90
2022-08-01T15:44:57.240Z,24.85
2022-08-01T15:47:26.940Z,24.78
2022-08-01T15:50:00.476Z,24.77
2022-08-01T15:52:31.616Z,24.77
2022-08-01T15:55:04.409Z,24.93
2022-08-01T15:57:35.176Z,24.45
2022-08-01T16:00:05.210Z,24.14
2022-08-01T16:02:42.581Z,24.31
2022-08-01T16:05:13.620Z,24.05
2022-08-01T16:08:01.766Z,23.99
2022-08-01T16:10:34.581Z,24.71
2022-08-01T16:13:07.229Z,24.36
2022-08-01T16:15:39.348Z,24.34
2022-08-01T16:18:16.248Z,24.63
2022-08-01T16:20:46.412Z,24.94
2022-08-01T16:23:20.390Z,24.91
2022-08-01T16:25:52.756Z,24.69
2022-08-01T16:28:23.586Z,24.74
2022-08-01T16:31:14.943Z,24.66
2022-08-01T16:33:53.055Z,24.67
2022-08-01T16:36:25.262Z,24.62
2022-08-01T16:38:55.216Z,24.60
2022-08-01T16:41:27.534Z,24.58
2022-08-01T16:43:57.392Z,24.44
2022-08-01T16:46:27.659Z,24.43
2022-08-01T16:48:58.562Z,24.48
2022-08-01T16:51:28.360Z,24.21
2022-08-01T16:54:02.861Z,24.23
2022-08-01T16:56:35.880Z,24.48
2022-08-01T16:59:06.658Z,24.26
2022-08-01T17:01:58.982Z,24.52
2022-08-01T17:04:30.461Z,24.34
2022-08-01T17:07:00.886Z,24.14
2022-08-01T17:09:31.731Z,24.18
2022-08-01T17:12:06.829Z,24.15
2022-08-01T17:14:40.015Z,24.07
2022-08-01T17:17:11.114Z,24.02
2022-08-01T17:19:42.177Z,23.98
2022-08-01T17:22:13.205Z,23.98
2022-08-01T17:24:43.973Z,24.07
2022-08-01T17:27:17.773Z,24.17
2022-08-01T17:29:48.889Z,24.23
2022-08-01T17:32:23.171Z,23.99
2022-08-01T17:34:53.897Z,23.95
2022-08-01T17:37:25.627Z,23.82
2022-08-01T17:39:55.475Z,24.05
2022-08-01T17:42:30.301Z,24.02
2022-08-01T17:45:01.078Z,24.13
2022-08-01T17:47:50.222Z,24.05
2022-08-01T17:50:21.448Z,23.90
2022-08-01T17:52:53.209Z,23.75
2022-08-01T17:55:55.516Z,23.74
2022-08-01T17:58:49.132Z,23.61
2022-08-01T18:01:10.040Z,23.64
2022-08-01T18:03:41.937Z,23.64
2022-08-01T18:06:13.759Z,23.76
2022-08-01T18:08:47.499Z,23.64
2022-08-01T18:11:19.429Z,23.79
2022-08-01T18:13:53.479Z,23.85
2022-08-01T18:16:25.239Z,23.84
2022-08-01T18:18:56.135Z,23.73
2022-08-01T18:21:26.986Z,23.61
2022-08-01T18:23:57.744Z,23.42
2022-08-01T18:26:27.670Z,23.45
2022-08-01T18:29:00.001Z,23.13
2022-08-01T18:31:30.759Z,23.30
2022-08-01T18:34:01.565Z,23.31
2022-08-01T18:36:32.929Z,23.22
2022-08-01T18:39:10.042Z,23.30
2022-08-01T18:41:43.241Z,23.29
2022-08-01T18:44:19.963Z,23.35
2022-08-01T18:46:55.855Z,23.41
2022-08-01T18:49:32.538Z,23.46
2022-08-01T21:22:00.219Z,20.07
2022-08-01T21:24:40.481Z,19.92
2022-08-01T21:27:11.015Z,19.85
2022-08-01T21:29:42.057Z,19.77
2022-08-01T21:32:16.130Z,19.58
2022-08-01T21:34:50.274Z,19.70
2022-08-01T21:37:25.861Z,19.67
2022-08-01T21:39:56.648Z,19.83
2022-08-01T21:42:29.415Z,19.41
2022-08-01T21:45:05.143Z,19.79
2022-08-01T21:47:34.865Z,19.74
2022-08-01T21:50:05.453Z,19.71
2022-08-01T21:52:46.954Z,19.63
2022-08-01T21:55:34.883Z,19.64
2022-08-01T21:58:26.468Z,19.40
2022-08-01T22:01:02.941Z,19.69
2022-08-01T22:03:38.425Z,19.64
2022-08-01T22:06:09.829Z,19.67
2022-08-01T22:08:51.455Z,19.70
2022-08-01T22:11:24.198Z,19.73
2022-08-01T22:13:57.633Z,19.64
2022-08-01T22:16:29.333Z,19.36
2022-08-01T22:19:00.057Z,19.18
2022-08-01T22:21:30.197Z,19.22
2022-08-01T22:24:03.582Z,19.03
2022-08-01T22:26:35.654Z,19.00
2022-08-01T22:29:05.712Z,18.90
2022-08-01T22:31:38.175Z,18.87
2022-08-01T22:34:09.417Z,18.61
2022-08-01T22:36:39.349Z,18.67
2022-08-01T22:39:11.713Z,18.70
2022-08-01T22:42:01.254Z,18.54
2022-08-01T22:44:37.643Z,18.58
2022-08-01T22:47:14.132Z,18.38
2022-08-01T22:49:57.105Z,18.58
2022-08-01T22:52:31.285Z,18.64
2022-08-01T22:55:07.693Z,18.56
2022-08-01T22:57:50.152Z,18.42
2022-08-01T23:00:21.197Z,18.35
2022-08-01T23:02:56.385Z,18.19
2022-08-01T23:05:28.239Z,17.99
2022-08-01T23:07:59.460Z,18.13
2022-08-01T23:10:31.724Z,18.12
2022-08-01T23:13:03.818Z,18.18
2022-08-01T23:15:34.619Z,18.13
2022-08-01T23:18:05.682Z,18.27
2022-08-01T23:20:37.608Z,18.32
2022-08-01T23:23:07.900Z,18.07
2022-08-01T23:25:41.568Z,18.18
2022-08-01T23:28:11.747Z,17.99
2022-08-01T23:30:41.772Z,18.15
2022-08-01T23:33:11.552Z,18.18
2022-08-01T23:35:45.176Z,18.14
2022-08-01T23:38:16.107Z,18.11
2022-08-01T23:40:50.123Z,18.03
2022-08-01T23:43:20.083Z,18.01
2022-08-01T23:46:04.171Z,17.98
2022-08-01T23:48:36.186Z,17.92
2022-08-01T23:51:06.714Z,17.88
2022-08-01T23:53:38.400Z,17.76
2022-08-01T23:56:11.077Z,17.71
2022-08-01T23:58:43.632Z,17.66
